sensor_id;sensor_type;location;lat;lon;timestamp;P1;durP1;ratioP1;P2;durP2;ratioP2
58615;SDS011;44385;51.992;4.206;2022-10-28T00:01:15;14.98;;;8.95;;
58615;SDS011;44385;51.992;4.206;2022-10-28T00:03:42;15.43;;;8.45;;
58615;SDS011;44385;51.992;4.206;2022-10-28T00:06:09;15.77;;;9.25;;
58615;SDS011;44385;51.992;4.206;2022-10-28T00:08:36;16.02;;;9.20;;
58615;SDS011;44385;51.992;4.206;2022-10-28T00:11:03;14.27;;;8.82;;
58615;SDS011;44385;51.992;4.206;2022-10-28T00:13:31;18.35;;;9.95;;
58615;SDS011;44385;51.992;4.206;2022-10-28T00:16:07;15.48;;;9.43;;
58615;SDS011;44385;51.992;4.206;2022-10-28T00:18:34;17.08;;;9.48;;
58615;SDS011;44385;51.992;4.206;2022-10-28T00:21:01;15.02;;;9.45;;
58615;SDS011;44385;51.992;4.206;2022-10-28T00:23:27;14.45;;;9.93;;
58615;SDS011;44385;51.992;4.206;2022-10-28T00:25:54;15.88;;;9.75;;
58615;SDS011;44385;51.992;4.206;2022-10-28T00:28:20;16.67;;;10.07;;
58615;SDS011;44385;51.992;4.206;2022-10-28T00:30:48;19.95;;;9.32;;
58615;SDS011;44385;51.992;4.206;2022-10-28T00:33:14;15.13;;;10.02;;
58615;SDS011;44385;51.992;4.206;2022-10-28T00:35:41;15.68;;;9.48;;
58615;SDS011;44385;51.992;4.206;2022-10-28T00:38:07;15.80;;;10.30;;
58615;SDS011;44385;51.992;4.206;2022-10-28T00:40:34;17.92;;;9.98;;
58615;SDS011;44385;51.992;4.206;2022-10-28T00:43:00;22.35;;;10.30;;
58615;SDS011;44385;51.992;4.206;2022-10-28T00:45:26;16.13;;;9.85;;
58615;SDS011;44385;51.992;4.206;2022-10-28T00:47:54;18.92;;;10.20;;
58615;SDS011;44385;51.992;4.206;2022-10-28T00:50:26;20.50;;;10.63;;
58615;SDS011;44385;51.992;4.206;2022-10-28T00:52:54;17.25;;;8.95;;
58615;SDS011;44385;51.992;4.206;2022-10-28T00:55:21;18.55;;;10.65;;
58615;SDS011;44385;51.992;4.206;2022-10-28T00:57:48;16.45;;;9.25;;
58615;SDS011;44385;51.992;4.206;2022-10-28T01:00:15;20.02;;;9.55;;
58615;SDS011;44385;51.992;4.206;2022-10-28T01:02:42;15.45;;;10.00;;
58615;SDS011;44385;51.992;4.206;2022-10-28T01:05:11;14.88;;;10.70;;
58615;SDS011;44385;51.992;4.206;2022-10-28T01:10:05;17.35;;;9.45;;
58615;SDS011;44385;51.992;4.206;2022-10-28T01:12:34;17.38;;;9.88;;
58615;SDS011;44385;51.992;4.206;2022-10-28T01:15:04;15.38;;;9.20;;
58615;SDS011;44385;51.992;4.206;2022-10-28T01:17:39;18.75;;;9.25;;
58615;SDS011;44385;51.992;4.206;2022-10-28T01:20:17;18.30;;;9.30;;
58615;SDS011;44385;51.992;4.206;2022-10-28T01:22:46;14.85;;;8.88;;
58615;SDS011;44385;51.992;4.206;2022-10-28T01:25:24;21.40;;;9.82;;
58615;SDS011;44385;51.992;4.206;2022-10-28T01:28:05;18.35;;;9.05;;
58615;SDS011;44385;51.992;4.206;2022-10-28T01:30:38;11.98;;;9.07;;
58615;SDS011;44385;51.992;4.206;2022-10-28T01:33:08;15.13;;;9.43;;
58615;SDS011;44385;51.992;4.206;2022-10-28T01:35:36;17.15;;;9.25;;
58615;SDS011;44385;51.992;4.206;2022-10-28T01:38:15;15.02;;;9.13;;
58615;SDS011;44385;51.992;4.206;2022-10-28T01:40:44;17.73;;;9.98;;
58615;SDS011;44385;51.992;4.206;2022-10-28T01:43:12;12.52;;;9.00;;
58615;SDS011;44385;51.992;4.206;2022-10-28T01:45:41;15.07;;;9.18;;
58615;SDS011;44385;51.992;4.206;2022-10-28T01:48:14;16.85;;;9.48;;
58615;SDS011;44385;51.992;4.206;2022-10-28T01:50:43;18.27;;;9.18;;
58615;SDS011;44385;51.992;4.206;2022-10-28T01:53:13;15.50;;;9.50;;
58615;SDS011;44385;51.992;4.206;2022-10-28T01:55:42;16.98;;;9.68;;
58615;SDS011;44385;51.992;4.206;2022-10-28T01:58:11;16.13;;;9.75;;
58615;SDS011;44385;51.992;4.206;2022-10-28T02:00:38;14.57;;;9.15;;
58615;SDS011;44385;51.992;4.206;2022-10-28T02:03:06;16.15;;;9.70;;
58615;SDS011;44385;51.992;4.206;2022-10-28T02:05:37;15.43;;;9.52;;
58615;SDS011;44385;51.992;4.206;2022-10-28T02:08:06;14.55;;;9.30;;
58615;SDS011;44385;51.992;4.206;2022-10-28T02:10:35;18.35;;;9.90;;
58615;SDS011;44385;51.992;4.206;2022-10-28T02:15:32;19.52;;;10.02;;
58615;SDS011;44385;51.992;4.206;2022-10-28T02:18:15;19.98;;;10.45;;
58615;SDS011;44385;51.992;4.206;2022-10-28T02:20:48;21.20;;;10.27;;
58615;SDS011;44385;51.992;4.206;2022-10-28T02:23:19;19.00;;;10.30;;
58615;SDS011;44385;51.992;4.206;2022-10-28T02:25:49;16.10;;;9.98;;
58615;SDS011;44385;51.992;4.206;2022-10-28T02:28:18;15.10;;;9.82;;
58615;SDS011;44385;51.992;4.206;2022-10-28T02:30:47;19.48;;;9.73;;
58615;SDS011;44385;51.992;4.206;2022-10-28T02:33:16;22.33;;;10.45;;
58615;SDS011;44385;51.992;4.206;2022-10-28T02:38:13;16.70;;;9.13;;
58615;SDS011;44385;51.992;4.206;2022-10-28T02:40:40;18.17;;;9.40;;
58615;SDS011;44385;51.992;4.206;2022-10-28T02:43:08;18.23;;;9.13;;
58615;SDS011;44385;51.992;4.206;2022-10-28T02:45:36;17.52;;;9.43;;
58615;SDS011;44385;51.992;4.206;2022-10-28T02:50:31;16.30;;;9.23;;
58615;SDS011;44385;51.992;4.206;2022-10-28T02:53:00;16.20;;;8.75;;
58615;SDS011;44385;51.992;4.206;2022-10-28T02:55:31;16.73;;;9.45;;
58615;SDS011;44385;51.992;4.206;2022-10-28T02:57:59;24.70;;;9.80;;
58615;SDS011;44385;51.992;4.206;2022-10-28T03:00:25;16.25;;;8.48;;
58615;SDS011;44385;51.992;4.206;2022-10-28T03:02:51;13.93;;;8.70;;
58615;SDS011;44385;51.992;4.206;2022-10-28T03:05:18;14.23;;;9.38;;
58615;SDS011;44385;51.992;4.206;2022-10-28T03:07:44;14.73;;;8.65;;
58615;SDS011;44385;51.992;4.206;2022-10-28T03:10:11;18.13;;;8.73;;
58615;SDS011;44385;51.992;4.206;2022-10-28T03:12:39;15.95;;;9.18;;
58615;SDS011;44385;51.992;4.206;2022-10-28T03:15:05;16.63;;;9.38;;
58615;SDS011;44385;51.992;4.206;2022-10-28T03:17:32;15.68;;;9.43;;
58615;SDS011;44385;51.992;4.206;2022-10-28T03:19:58;13.23;;;8.70;;
58615;SDS011;44385;51.992;4.206;2022-10-28T03:22:25;14.25;;;8.02;;
58615;SDS011;44385;51.992;4.206;2022-10-28T03:24:51;16.23;;;8.65;;
58615;SDS011;44385;51.992;4.206;2022-10-28T03:27:18;19.00;;;9.90;;
58615;SDS011;44385;51.992;4.206;2022-10-28T03:29:46;16.48;;;9.25;;
58615;SDS011;44385;51.992;4.206;2022-10-28T03:32:13;16.53;;;8.80;;
58615;SDS011;44385;51.992;4.206;2022-10-28T03:34:39;16.77;;;8.90;;
58615;SDS011;44385;51.992;4.206;2022-10-28T03:37:06;18.88;;;9.15;;
58615;SDS011;44385;51.992;4.206;2022-10-28T03:39:32;18.60;;;8.80;;
58615;SDS011;44385;51.992;4.206;2022-10-28T03:41:59;15.73;;;8.88;;
58615;SDS011;44385;51.992;4.206;2022-10-28T03:44:25;16.83;;;8.57;;
58615;SDS011;44385;51.992;4.206;2022-10-28T03:46:53;14.43;;;8.38;;
58615;SDS011;44385;51.992;4.206;2022-10-28T03:49:19;12.40;;;8.07;;
58615;SDS011;44385;51.992;4.206;2022-10-28T03:51:45;17.40;;;8.60;;
58615;SDS011;44385;51.992;4.206;2022-10-28T03:54:12;14.13;;;8.48;;
58615;SDS011;44385;51.992;4.206;2022-10-28T03:56:38;11.82;;;7.70;;
58615;SDS011;44385;51.992;4.206;2022-10-28T03:59:05;14.35;;;7.88;;
58615;SDS011;44385;51.992;4.206;2022-10-28T04:01:33;16.08;;;7.78;;
58615;SDS011;44385;51.992;4.206;2022-10-28T04:04:01;15.10;;;8.05;;
58615;SDS011;44385;51.992;4.206;2022-10-28T04:06:27;12.52;;;8.02;;
58615;SDS011;44385;51.992;4.206;2022-10-28T04:08:54;13.93;;;8.10;;
58615;SDS011;44385;51.992;4.206;2022-10-28T04:11:20;18.30;;;8.20;;
58615;SDS011;44385;51.992;4.206;2022-10-28T04:13:47;13.77;;;7.88;;
58615;SDS011;44385;51.992;4.206;2022-10-28T04:16:13;19.45;;;8.48;;
58615;SDS011;44385;51.992;4.206;2022-10-28T04:18:39;15.63;;;7.68;;
58615;SDS011;44385;51.992;4.206;2022-10-28T04:21:07;18.80;;;7.88;;
58615;SDS011;44385;51.992;4.206;2022-10-28T04:23:33;12.95;;;7.45;;
58615;SDS011;44385;51.992;4.206;2022-10-28T04:26:00;12.02;;;7.45;;
58615;SDS011;44385;51.992;4.206;2022-10-28T04:28:26;18.80;;;8.27;;
58615;SDS011;44385;51.992;4.206;2022-10-28T04:30:53;16.88;;;8.15;;
58615;SDS011;44385;51.992;4.206;2022-10-28T04:33:19;14.82;;;7.60;;
58615;SDS011;44385;51.992;4.206;2022-10-28T04:35:46;12.50;;;8.07;;
58615;SDS011;44385;51.992;4.206;2022-10-28T04:38:14;19.30;;;8.68;;
58615;SDS011;44385;51.992;4.206;2022-10-28T04:40:40;15.13;;;8.00;;
58615;SDS011;44385;51.992;4.206;2022-10-28T04:43:06;16.08;;;7.70;;
58615;SDS011;44385;51.992;4.206;2022-10-28T04:45:34;14.40;;;8.07;;
58615;SDS011;44385;51.992;4.206;2022-10-28T04:48:00;13.82;;;8.77;;
58615;SDS011;44385;51.992;4.206;2022-10-28T04:50:27;16.67;;;7.80;;
58615;SDS011;44385;51.992;4.206;2022-10-28T04:52:53;13.52;;;7.45;;
58615;SDS011;44385;51.992;4.206;2022-10-28T04:55:21;15.65;;;7.35;;
58615;SDS011;44385;51.992;4.206;2022-10-28T04:57:54;15.52;;;7.57;;
58615;SDS011;44385;51.992;4.206;2022-10-28T05:00:21;16.48;;;8.07;;
58615;SDS011;44385;51.992;4.206;2022-10-28T05:02:47;17.63;;;7.82;;
58615;SDS011;44385;51.992;4.206;2022-10-28T05:05:14;12.23;;;8.15;;
58615;SDS011;44385;51.992;4.206;2022-10-28T05:07:40;13.32;;;6.63;;
58615;SDS011;44385;51.992;4.206;2022-10-28T05:10:07;14.25;;;7.07;;
58615;SDS011;44385;51.992;4.206;2022-10-28T05:12:35;15.50;;;7.45;;
58615;SDS011;44385;51.992;4.206;2022-10-28T05:15:01;11.90;;;6.63;;
58615;SDS011;44385;51.992;4.206;2022-10-28T05:17:28;14.20;;;7.18;;
58615;SDS011;44385;51.992;4.206;2022-10-28T05:19:54;21.90;;;6.88;;
58615;SDS011;44385;51.992;4.206;2022-10-28T05:22:21;14.88;;;6.78;;
58615;SDS011;44385;51.992;4.206;2022-10-28T05:24:47;11.80;;;7.07;;
58615;SDS011;44385;51.992;4.206;2022-10-28T05:27:14;18.17;;;7.18;;
58615;SDS011;44385;51.992;4.206;2022-10-28T05:29:42;15.40;;;7.22;;
58615;SDS011;44385;51.992;4.206;2022-10-28T05:32:08;16.02;;;7.30;;
58615;SDS011;44385;51.992;4.206;2022-10-28T05:34:34;15.98;;;7.18;;
58615;SDS011;44385;51.992;4.206;2022-10-28T05:37:01;12.98;;;7.00;;
58615;SDS011;44385;51.992;4.206;2022-10-28T05:39:27;12.18;;;7.22;;
58615;SDS011;44385;51.992;4.206;2022-10-28T05:41:53;15.02;;;6.82;;
58615;SDS011;44385;51.992;4.206;2022-10-28T05:44:20;15.30;;;8.00;;
58615;SDS011;44385;51.992;4.206;2022-10-28T05:46:47;17.05;;;7.68;;
58615;SDS011;44385;51.992;4.206;2022-10-28T05:49:14;12.15;;;6.45;;
58615;SDS011;44385;51.992;4.206;2022-10-28T05:51:44;16.13;;;7.20;;
58615;SDS011;44385;51.992;4.206;2022-10-28T05:54:10;17.10;;;7.40;;
58615;SDS011;44385;51.992;4.206;2022-10-28T05:56:37;18.08;;;7.75;;
58615;SDS011;44385;51.992;4.206;2022-10-28T05:59:03;12.95;;;6.85;;
58615;SDS011;44385;51.992;4.206;2022-10-28T06:01:29;22.33;;;7.38;;
58615;SDS011;44385;51.992;4.206;2022-10-28T06:03:57;19.05;;;7.15;;
58615;SDS011;44385;51.992;4.206;2022-10-28T06:06:24;16.85;;;8.60;;
58615;SDS011;44385;51.992;4.206;2022-10-28T06:08:52;16.52;;;6.75;;
58615;SDS011;44385;51.992;4.206;2022-10-28T06:11:19;14.88;;;6.72;;
58615;SDS011;44385;51.992;4.206;2022-10-28T06:13:45;11.85;;;6.93;;
58615;SDS011;44385;51.992;4.206;2022-10-28T06:16:11;15.85;;;6.65;;
58615;SDS011;44385;51.992;4.206;2022-10-28T06:18:38;12.68;;;6.40;;
58615;SDS011;44385;51.992;4.206;2022-10-28T06:21:06;18.38;;;7.82;;
58615;SDS011;44385;51.992;4.206;2022-10-28T06:23:32;26.45;;;9.25;;
58615;SDS011;44385;51.992;4.206;2022-10-28T06:25:59;18.17;;;6.70;;
58615;SDS011;44385;51.992;4.206;2022-10-28T06:28:26;14.63;;;7.68;;
58615;SDS011;44385;51.992;4.206;2022-10-28T06:31:00;17.98;;;8.05;;
58615;SDS011;44385;51.992;4.206;2022-10-28T06:33:26;16.17;;;7.88;;
58615;SDS011;44385;51.992;4.206;2022-10-28T06:35:55;19.33;;;8.15;;
58615;SDS011;44385;51.992;4.206;2022-10-28T06:38:23;14.40;;;7.72;;
58615;SDS011;44385;51.992;4.206;2022-10-28T06:40:49;13.90;;;7.15;;
58615;SDS011;44385;51.992;4.206;2022-10-28T06:43:16;17.33;;;7.75;;
58615;SDS011;44385;51.992;4.206;2022-10-28T06:45:42;13.50;;;7.40;;
58615;SDS011;44385;51.992;4.206;2022-10-28T06:48:09;18.65;;;7.35;;
58615;SDS011;44385;51.992;4.206;2022-10-28T06:50:35;18.13;;;8.25;;
58615;SDS011;44385;51.992;4.206;2022-10-28T06:53:02;16.48;;;7.20;;
58615;SDS011;44385;51.992;4.206;2022-10-28T06:55:30;16.52;;;7.82;;
58615;SDS011;44385;51.992;4.206;2022-10-28T06:58:00;15.63;;;8.02;;
58615;SDS011;44385;51.992;4.206;2022-10-28T07:00:26;16.35;;;7.82;;
58615;SDS011;44385;51.992;4.206;2022-10-28T07:02:54;21.92;;;7.82;;
58615;SDS011;44385;51.992;4.206;2022-10-28T07:05:20;16.23;;;8.48;;
58615;SDS011;44385;51.992;4.206;2022-10-28T07:07:47;13.55;;;7.20;;
58615;SDS011;44385;51.992;4.206;2022-10-28T07:10:13;18.30;;;7.20;;
58615;SDS011;44385;51.992;4.206;2022-10-28T07:12:41;20.27;;;7.97;;
58615;SDS011;44385;51.992;4.206;2022-10-28T07:15:08;14.32;;;7.50;;
58615;SDS011;44385;51.992;4.206;2022-10-28T07:17:34;14.98;;;8.18;;
58615;SDS011;44385;51.992;4.206;2022-10-28T07:20:01;12.85;;;7.25;;
58615;SDS011;44385;51.992;4.206;2022-10-28T07:22:27;16.08;;;7.03;;
58615;SDS011;44385;51.992;4.206;2022-10-28T07:24:54;12.88;;;6.75;;
58615;SDS011;44385;51.992;4.206;2022-10-28T07:27:20;17.23;;;7.78;;
58615;SDS011;44385;51.992;4.206;2022-10-28T07:29:48;18.30;;;8.80;;
58615;SDS011;44385;51.992;4.206;2022-10-28T07:32:14;15.15;;;6.80;;
58615;SDS011;44385;51.992;4.206;2022-10-28T07:34:40;17.75;;;7.10;;
58615;SDS011;44385;51.992;4.206;2022-10-28T07:37:07;13.55;;;6.80;;
58615;SDS011;44385;51.992;4.206;2022-10-28T07:39:35;14.85;;;7.53;;
58615;SDS011;44385;51.992;4.206;2022-10-28T07:42:01;17.92;;;7.15;;
58615;SDS011;44385;51.992;4.206;2022-10-28T07:44:27;15.15;;;7.45;;
58615;SDS011;44385;51.992;4.206;2022-10-28T07:46:55;15.07;;;6.38;;
58615;SDS011;44385;51.992;4.206;2022-10-28T07:49:21;19.50;;;6.78;;
58615;SDS011;44385;51.992;4.206;2022-10-28T07:51:48;18.98;;;7.30;;
58615;SDS011;44385;51.992;4.206;2022-10-28T07:54:14;16.23;;;7.20;;
58615;SDS011;44385;51.992;4.206;2022-10-28T07:56:41;11.73;;;7.10;;
58615;SDS011;44385;51.992;4.206;2022-10-28T07:59:07;23.10;;;6.50;;
58615;SDS011;44385;51.992;4.206;2022-10-28T08:01:33;16.65;;;6.93;;
58615;SDS011;44385;51.992;4.206;2022-10-28T08:04:01;14.57;;;6.45;;
58615;SDS011;44385;51.992;4.206;2022-10-28T08:06:28;14.18;;;6.50;;
58615;SDS011;44385;51.992;4.206;2022-10-28T08:08:55;26.15;;;6.50;;
58615;SDS011;44385;51.992;4.206;2022-10-28T08:11:22;15.85;;;6.32;;
58615;SDS011;44385;51.992;4.206;2022-10-28T08:13:49;14.52;;;6.22;;
58615;SDS011;44385;51.992;4.206;2022-10-28T08:16:15;16.25;;;5.75;;
58615;SDS011;44385;51.992;4.206;2022-10-28T08:18:42;12.02;;;5.97;;
58615;SDS011;44385;51.992;4.206;2022-10-28T08:21:11;13.05;;;6.13;;
58615;SDS011;44385;51.992;4.206;2022-10-28T08:23:38;13.40;;;6.18;;
58615;SDS011;44385;51.992;4.206;2022-10-28T08:26:05;16.77;;;6.70;;
58615;SDS011;44385;51.992;4.206;2022-10-28T08:28:32;15.68;;;6.47;;
58615;SDS011;44385;51.992;4.206;2022-10-28T08:30:59;21.00;;;6.80;;
58615;SDS011;44385;51.992;4.206;2022-10-28T08:33:26;18.77;;;6.35;;
58615;SDS011;44385;51.992;4.206;2022-10-28T08:35:54;12.48;;;5.88;;
58615;SDS011;44385;51.992;4.206;2022-10-28T08:38:22;11.95;;;6.13;;
58615;SDS011;44385;51.992;4.206;2022-10-28T08:40:51;17.50;;;6.50;;
58615;SDS011;44385;51.992;4.206;2022-10-28T08:43:25;16.90;;;6.28;;
58615;SDS011;44385;51.992;4.206;2022-10-28T08:45:55;15.48;;;6.03;;
58615;SDS011;44385;51.992;4.206;2022-10-28T08:48:26;17.35;;;6.30;;
58615;SDS011;44385;51.992;4.206;2022-10-28T08:50:54;16.15;;;6.07;;
58615;SDS011;44385;51.992;4.206;2022-10-28T08:53:28;12.15;;;6.28;;
58615;SDS011;44385;51.992;4.206;2022-10-28T08:55:59;15.48;;;6.03;;
58615;SDS011;44385;51.992;4.206;2022-10-28T08:58:31;15.73;;;6.55;;
58615;SDS011;44385;51.992;4.206;2022-10-28T09:00:59;16.52;;;5.53;;
58615;SDS011;44385;51.992;4.206;2022-10-28T09:03:26;12.40;;;5.97;;
58615;SDS011;44385;51.992;4.206;2022-10-28T09:05:55;12.43;;;5.60;;
58615;SDS011;44385;51.992;4.206;2022-10-28T09:08:29;17.38;;;5.50;;
58615;SDS011;44385;51.992;4.206;2022-10-28T09:13:25;11.85;;;5.72;;
58615;SDS011;44385;51.992;4.206;2022-10-28T09:15:56;9.18;;;5.40;;
58615;SDS011;44385;51.992;4.206;2022-10-28T09:18:27;14.57;;;5.75;;
58615;SDS011;44385;51.992;4.206;2022-10-28T09:20:56;15.40;;;6.10;;
58615;SDS011;44385;51.992;4.206;2022-10-28T09:25:55;15.07;;;5.18;;
58615;SDS011;44385;51.992;4.206;2022-10-28T09:28:28;17.40;;;5.95;;
58615;SDS011;44385;51.992;4.206;2022-10-28T09:31:03;12.20;;;6.03;;
58615;SDS011;44385;51.992;4.206;2022-10-28T09:33:38;14.35;;;5.60;;
58615;SDS011;44385;51.992;4.206;2022-10-28T09:36:07;12.95;;;5.85;;
58615;SDS011;44385;51.992;4.206;2022-10-28T09:38:36;11.13;;;5.10;;
58615;SDS011;44385;51.992;4.206;2022-10-28T09:41:05;10.80;;;5.68;;
58615;SDS011;44385;51.992;4.206;2022-10-28T09:43:33;14.43;;;5.35;;
58615;SDS011;44385;51.992;4.206;2022-10-28T09:46:00;13.15;;;5.32;;
58615;SDS011;44385;51.992;4.206;2022-10-28T09:48:27;13.95;;;5.40;;
58615;SDS011;44385;51.992;4.206;2022-10-28T09:50:54;14.57;;;6.18;;
58615;SDS011;44385;51.992;4.206;2022-10-28T09:53:25;14.07;;;5.80;;
58615;SDS011;44385;51.992;4.206;2022-10-28T09:55:54;11.00;;;4.70;;
58615;SDS011;44385;51.992;4.206;2022-10-28T09:58:22;14.10;;;4.97;;
58615;SDS011;44385;51.992;4.206;2022-10-28T10:00:49;18.10;;;5.38;;
58615;SDS011;44385;51.992;4.206;2022-10-28T10:03:15;12.25;;;5.72;;
58615;SDS011;44385;51.992;4.206;2022-10-28T10:05:42;12.45;;;4.80;;
58615;SDS011;44385;51.992;4.206;2022-10-28T10:08:10;13.90;;;5.18;;
58615;SDS011;44385;51.992;4.206;2022-10-28T10:10:38;13.23;;;5.28;;
58615;SDS011;44385;51.992;4.206;2022-10-28T10:13:08;10.35;;;4.80;;
58615;SDS011;44385;51.992;4.206;2022-10-28T10:15:41;16.95;;;5.85;;
58615;SDS011;44385;51.992;4.206;2022-10-28T10:18:10;13.55;;;4.63;;
58615;SDS011;44385;51.992;4.206;2022-10-28T10:20:44;12.45;;;5.40;;
58615;SDS011;44385;51.992;4.206;2022-10-28T10:23:20;12.52;;;5.88;;
58615;SDS011;44385;51.992;4.206;2022-10-28T10:25:46;14.48;;;5.70;;
58615;SDS011;44385;51.992;4.206;2022-10-28T10:28:18;10.73;;;5.55;;
58615;SDS011;44385;51.992;4.206;2022-10-28T10:30:48;11.93;;;5.35;;
58615;SDS011;44385;51.992;4.206;2022-10-28T10:33:16;15.48;;;5.53;;
58615;SDS011;44385;51.992;4.206;2022-10-28T10:35:43;13.25;;;5.20;;
58615;SDS011;44385;51.992;4.206;2022-10-28T10:38:18;12.93;;;5.38;;
58615;SDS011;44385;51.992;4.206;2022-10-28T10:40:46;10.82;;;4.97;;
58615;SDS011;44385;51.992;4.206;2022-10-28T10:43:17;13.10;;;6.00;;
58615;SDS011;44385;51.992;4.206;2022-10-28T10:45:49;11.60;;;6.18;;
58615;SDS011;44385;51.992;4.206;2022-10-28T10:48:16;12.38;;;4.78;;
58615;SDS011;44385;51.992;4.206;2022-10-28T10:50:43;17.10;;;6.63;;
58615;SDS011;44385;51.992;4.206;2022-10-28T10:53:17;15.15;;;5.47;;
58615;SDS011;44385;51.992;4.206;2022-10-28T10:55:47;11.48;;;4.80;;
58615;SDS011;44385;51.992;4.206;2022-10-28T10:58:15;16.55;;;5.82;;
58615;SDS011;44385;51.992;4.206;2022-10-28T11:00:43;12.73;;;4.78;;
58615;SDS011;44385;51.992;4.206;2022-10-28T11:03:14;19.55;;;6.45;;
58615;SDS011;44385;51.992;4.206;2022-10-28T11:05:46;12.32;;;5.22;;
58615;SDS011;44385;51.992;4.206;2022-10-28T11:08:16;14.43;;;5.20;;
58615;SDS011;44385;51.992;4.206;2022-10-28T11:10:46;11.82;;;5.20;;
58615;SDS011;44385;51.992;4.206;2022-10-28T11:13:27;11.85;;;4.72;;
58615;SDS011;44385;51.992;4.206;2022-10-28T11:16:00;14.98;;;5.25;;
58615;SDS011;44385;51.992;4.206;2022-10-28T11:18:27;16.92;;;5.32;;
58615;SDS011;44385;51.992;4.206;2022-10-28T11:20:57;14.52;;;6.05;;
58615;SDS011;44385;51.992;4.206;2022-10-28T11:23:29;21.80;;;6.97;;
58615;SDS011;44385;51.992;4.206;2022-10-28T11:26:00;16.20;;;6.95;;
58615;SDS011;44385;51.992;4.206;2022-10-28T11:31:19;19.60;;;6.63;;
58615;SDS011;44385;51.992;4.206;2022-10-28T11:33:51;19.23;;;7.13;;
58615;SDS011;44385;51.992;4.206;2022-10-28T11:36:21;17.98;;;8.35;;
58615;SDS011;44385;51.992;4.206;2022-10-28T11:38:58;16.20;;;8.00;;
58615;SDS011;44385;51.992;4.206;2022-10-28T11:41:28;15.90;;;6.00;;
58615;SDS011;44385;51.992;4.206;2022-10-28T11:43:56;15.40;;;6.15;;
58615;SDS011;44385;51.992;4.206;2022-10-28T11:46:29;14.93;;;5.60;;
58615;SDS011;44385;51.992;4.206;2022-10-28T11:49:07;17.30;;;6.80;;
58615;SDS011;44385;51.992;4.206;2022-10-28T11:51:45;16.35;;;6.45;;
58615;SDS011;44385;51.992;4.206;2022-10-28T11:57:00;19.08;;;6.22;;
58615;SDS011;44385;51.992;4.206;2022-10-28T11:59:38;13.35;;;5.03;;
58615;SDS011;44385;51.992;4.206;2022-10-28T12:02:16;17.45;;;5.72;;
58615;SDS011;44385;51.992;4.206;2022-10-28T12:04:53;15.20;;;6.50;;
58615;SDS011;44385;51.992;4.206;2022-10-28T12:07:39;14.40;;;5.78;;
58615;SDS011;44385;51.992;4.206;2022-10-28T12:10:11;13.23;;;5.30;;
58615;SDS011;44385;51.992;4.206;2022-10-28T12:12:41;13.00;;;5.18;;
58615;SDS011;44385;51.992;4.206;2022-10-28T12:15:13;12.30;;;4.80;;
58615;SDS011;44385;51.992;4.206;2022-10-28T12:17:42;15.57;;;4.88;;
58615;SDS011;44385;51.992;4.206;2022-10-28T12:20:14;20.02;;;5.82;;
58615;SDS011;44385;51.992;4.206;2022-10-28T12:22:44;10.80;;;5.28;;
58615;SDS011;44385;51.992;4.206;2022-10-28T12:25:12;18.40;;;6.00;;
58615;SDS011;44385;51.992;4.206;2022-10-28T12:30:13;14.70;;;5.03;;
58615;SDS011;44385;51.992;4.206;2022-10-28T12:32:40;12.57;;;4.35;;
58615;SDS011;44385;51.992;4.206;2022-10-28T12:35:12;18.05;;;5.35;;
58615;SDS011;44385;51.992;4.206;2022-10-28T12:37:42;18.83;;;6.05;;
58615;SDS011;44385;51.992;4.206;2022-10-28T12:40:13;10.65;;;4.55;;
58615;SDS011;44385;51.992;4.206;2022-10-28T12:42:41;15.80;;;5.65;;
58615;SDS011;44385;51.992;4.206;2022-10-28T12:45:10;15.55;;;5.22;;
58615;SDS011;44385;51.992;4.206;2022-10-28T12:47:37;11.37;;;4.37;;
58615;SDS011;44385;51.992;4.206;2022-10-28T12:50:08;14.88;;;4.53;;
58615;SDS011;44385;51.992;4.206;2022-10-28T12:52:39;14.25;;;4.53;;
58615;SDS011;44385;51.992;4.206;2022-10-28T12:55:13;12.13;;;4.95;;
58615;SDS011;44385;51.992;4.206;2022-10-28T12:57:42;17.13;;;5.80;;
58615;SDS011;44385;51.992;4.206;2022-10-28T13:00:12;13.07;;;5.20;;
58615;SDS011;44385;51.992;4.206;2022-10-28T13:02:42;11.13;;;5.25;;
58615;SDS011;44385;51.992;4.206;2022-10-28T13:05:14;17.00;;;4.80;;
58615;SDS011;44385;51.992;4.206;2022-10-28T13:07:46;19.33;;;5.30;;
58615;SDS011;44385;51.992;4.206;2022-10-28T13:10:20;15.55;;;5.03;;
58615;SDS011;44385;51.992;4.206;2022-10-28T13:12:58;19.58;;;5.53;;
58615;SDS011;44385;51.992;4.206;2022-10-28T13:18:24;10.82;;;5.00;;
58615;SDS011;44385;51.992;4.206;2022-10-28T13:20:58;14.30;;;5.50;;
58615;SDS011;44385;51.992;4.206;2022-10-28T13:23:31;17.58;;;5.45;;
58615;SDS011;44385;51.992;4.206;2022-10-28T13:26:02;15.73;;;5.03;;
58615;SDS011;44385;51.992;4.206;2022-10-28T13:28:30;17.80;;;4.93;;
58615;SDS011;44385;51.992;4.206;2022-10-28T13:31:01;12.68;;;5.88;;
58615;SDS011;44385;51.992;4.206;2022-10-28T13:33:29;13.30;;;4.78;;
58615;SDS011;44385;51.992;4.206;2022-10-28T13:36:05;13.85;;;5.45;;
58615;SDS011;44385;51.992;4.206;2022-10-28T13:38:32;17.67;;;5.38;;
58615;SDS011;44385;51.992;4.206;2022-10-28T13:41:08;10.73;;;4.50;;
58615;SDS011;44385;51.992;4.206;2022-10-28T13:49:21;14.63;;;4.65;;
58615;SDS011;44385;51.992;4.206;2022-10-28T13:51:48;19.00;;;6.03;;
58615;SDS011;44385;51.992;4.206;2022-10-28T13:57:01;21.80;;;5.75;;
58615;SDS011;44385;51.992;4.206;2022-10-28T13:59:39;20.45;;;4.43;;
58615;SDS011;44385;51.992;4.206;2022-10-28T14:02:21;17.45;;;5.20;;
58615;SDS011;44385;51.992;4.206;2022-10-28T14:04:55;15.25;;;4.60;;
58615;SDS011;44385;51.992;4.206;2022-10-28T14:07:22;17.23;;;5.30;;
58615;SDS011;44385;51.992;4.206;2022-10-28T14:09:52;17.80;;;5.65;;
58615;SDS011;44385;51.992;4.206;2022-10-28T14:12:22;24.35;;;5.35;;
58615;SDS011;44385;51.992;4.206;2022-10-28T14:14:54;19.10;;;5.22;;
58615;SDS011;44385;51.992;4.206;2022-10-28T14:17:22;18.17;;;5.25;;
58615;SDS011;44385;51.992;4.206;2022-10-28T14:19:49;18.33;;;5.43;;
58615;SDS011;44385;51.992;4.206;2022-10-28T14:22:25;24.83;;;6.00;;
58615;SDS011;44385;51.992;4.206;2022-10-28T14:24:52;17.17;;;5.00;;
58615;SDS011;44385;51.992;4.206;2022-10-28T14:27:19;16.60;;;5.22;;
58615;SDS011;44385;51.992;4.206;2022-10-28T14:32:42;13.82;;;4.32;;
58615;SDS011;44385;51.992;4.206;2022-10-28T14:35:18;17.95;;;5.07;;
58615;SDS011;44385;51.992;4.206;2022-10-28T14:40:39;17.58;;;5.20;;
58615;SDS011;44385;51.992;4.206;2022-10-28T14:43:23;14.95;;;5.38;;
58615;SDS011;44385;51.992;4.206;2022-10-28T14:45:53;20.35;;;5.60;;
58615;SDS011;44385;51.992;4.206;2022-10-28T14:48:33;13.43;;;4.47;;
58615;SDS011;44385;51.992;4.206;2022-10-28T14:51:06;21.80;;;6.05;;
58615;SDS011;44385;51.992;4.206;2022-10-28T14:53:34;19.15;;;5.38;;
58615;SDS011;44385;51.992;4.206;2022-10-28T14:56:02;18.33;;;5.75;;
58615;SDS011;44385;51.992;4.206;2022-10-28T14:58:31;15.10;;;5.82;;
58615;SDS011;44385;51.992;4.206;2022-10-28T15:01:18;13.30;;;5.18;;
58615;SDS011;44385;51.992;4.206;2022-10-28T15:03:47;18.90;;;5.13;;
58615;SDS011;44385;51.992;4.206;2022-10-28T15:06:18;20.08;;;5.38;;
58615;SDS011;44385;51.992;4.206;2022-10-28T15:08:47;21.60;;;5.40;;
58615;SDS011;44385;51.992;4.206;2022-10-28T15:11:14;22.52;;;5.93;;
58615;SDS011;44385;51.992;4.206;2022-10-28T15:13:41;15.85;;;4.70;;
58615;SDS011;44385;51.992;4.206;2022-10-28T15:16:17;19.80;;;4.85;;
58615;SDS011;44385;51.992;4.206;2022-10-28T15:18:45;15.80;;;3.67;;
58615;SDS011;44385;51.992;4.206;2022-10-28T15:21:14;17.83;;;5.15;;
58615;SDS011;44385;51.992;4.206;2022-10-28T15:23:41;16.55;;;4.70;;